createdAt,value
2023-03-06T00:01:18.572Z,1.92
2023-03-06T00:04:04.491Z,1.30
2023-03-06T00:06:51.012Z,1.67
2023-03-06T00:09:36.644Z,1.60
2023-03-06T00:12:22.216Z,0.90
2023-03-06T00:15:09.017Z,0.60
2023-03-06T00:17:56.143Z,1.25
2023-03-06T00:20:43.686Z,1.15
2023-03-06T00:23:29.236Z,0.98
2023-03-06T00:26:14.704Z,1.63
2023-03-06T00:29:00.291Z,1.65
2023-03-06T00:31:45.830Z,1.27
2023-03-06T00:34:31.624Z,2.30
2023-03-06T00:37:16.903Z,1.35
2023-03-06T00:40:06.269Z,2.08
2023-03-06T00:42:51.889Z,1.80
2023-03-06T00:45:37.657Z,0.68
2023-03-06T00:48:23.109Z,0.88
2023-03-06T00:51:08.728Z,0.90
2023-03-06T00:53:54.146Z,0.98
2023-03-06T00:56:39.737Z,1.15
2023-03-06T00:59:24.912Z,0.80
2023-03-06T01:02:10.751Z,1.27
2023-03-06T01:04:56.675Z,0.75
2023-03-06T01:07:42.305Z,0.63
2023-03-06T01:10:28.407Z,0.95
2023-03-06T01:13:13.694Z,0.40
2023-03-06T01:16:13.914Z,0.68
2023-03-06T01:18:59.808Z,0.93
2023-03-06T01:21:45.741Z,0.60
2023-03-06T01:24:31.499Z,0.30
2023-03-06T01:27:16.994Z,0.80
2023-03-06T01:30:02.898Z,0.80
2023-03-06T01:32:48.713Z,1.13
2023-03-06T01:35:34.176Z,0.90
2023-03-06T01:38:20.181Z,0.32
2023-03-06T01:41:07.017Z,0.63
2023-03-06T01:43:52.427Z,0.60
2023-03-06T01:46:44.887Z,0.52
2023-03-06T01:49:41.770Z,0.45
2023-03-06T01:52:34.890Z,0.30
2023-03-06T01:55:27.833Z,0.70
2023-03-06T01:58:18.236Z,0.40
2023-03-06T02:01:04.147Z,0.95
2023-03-06T02:03:51.346Z,1.08
2023-03-06T02:06:40.796Z,0.43
2023-03-06T02:09:27.445Z,0.10
2023-03-06T02:12:18.641Z,0.45
2023-03-06T02:15:05.291Z,0.65
2023-03-06T02:17:52.386Z,0.57
2023-03-06T02:20:49.100Z,0.47
2023-03-06T02:24:11.708Z,0.30
2023-03-06T02:27:00.097Z,0.30
2023-03-06T02:29:45.795Z,0.57
2023-03-06T02:32:31.192Z,0.30
2023-03-06T02:35:30.002Z,0.50
2023-03-06T02:38:21.001Z,0.82
2023-03-06T02:41:09.314Z,0.60
2023-03-06T02:43:54.920Z,0.60
2023-03-06T02:46:40.440Z,0.35
2023-03-06T02:49:26.596Z,0.65
2023-03-06T02:52:12.520Z,1.05
2023-03-06T02:54:58.096Z,0.60
2023-03-06T02:57:43.728Z,0.50
2023-03-06T03:00:29.949Z,0.30
2023-03-06T03:03:16.228Z,0.50
2023-03-06T03:06:05.436Z,0.50
2023-03-06T03:08:50.834Z,0.90
2023-03-06T03:11:36.352Z,0.43
2023-03-06T03:14:21.716Z,0.77
2023-03-06T03:17:07.228Z,0.90
2023-03-06T03:19:53.122Z,0.80
2023-03-06T03:22:39.334Z,0.82
2023-03-06T03:25:26.377Z,0.88
2023-03-06T03:28:11.749Z,1.00
2023-03-06T03:31:04.395Z,1.52
2023-03-06T03:33:50.130Z,0.80
2023-03-06T03:36:35.999Z,0.60
2023-03-06T03:39:21.877Z,0.40
2023-03-06T03:42:07.560Z,0.90
2023-03-06T03:44:53.226Z,0.38
2023-03-06T03:47:38.876Z,1.10
2023-03-06T03:50:24.789Z,0.57
2023-03-06T03:53:10.184Z,0.80
2023-03-06T03:55:55.516Z,0.82
2023-03-06T03:58:41.114Z,0.75
2023-03-06T04:01:26.874Z,0.30
2023-03-06T04:04:12.779Z,0.85
2023-03-06T04:06:58.224Z,0.70
2023-03-06T04:09:43.561Z,0.50
2023-03-06T04:12:29.191Z,0.40
2023-03-06T04:15:14.692Z,0.40
2023-03-06T04:18:00.158Z,0.50
2023-03-06T04:20:47.625Z,0.40
2023-03-06T04:23:33.710Z,0.70
2023-03-06T04:26:19.080Z,0.47
2023-03-06T04:29:04.462Z,0.68
2023-03-06T04:31:49.884Z,0.40
2023-03-06T04:34:35.817Z,0.40
2023-03-06T04:37:25.652Z,0.35
2023-03-06T04:40:34.364Z,0.73
2023-03-06T04:43:20.371Z,0.30
2023-03-06T04:46:05.990Z,0.50
2023-03-06T04:48:51.907Z,0.25
2023-03-06T04:51:37.767Z,0.47
2023-03-06T04:54:23.308Z,0.47
2023-03-06T04:57:10.209Z,1.17
2023-03-06T04:59:55.731Z,0.20
2023-03-06T05:02:44.309Z,0.40
2023-03-06T05:05:30.131Z,0.50
2023-03-06T05:08:17.210Z,0.65
2023-03-06T05:11:03.261Z,1.13
2023-03-06T05:13:48.816Z,1.48
2023-03-06T05:16:34.387Z,0.57
2023-03-06T05:19:19.847Z,1.23
2023-03-06T05:22:05.499Z,0.50
2023-03-06T05:24:51.402Z,0.77
2023-03-06T05:27:38.151Z,0.80
2023-03-06T05:30:24.175Z,1.33
2023-03-06T05:33:10.083Z,1.00
2023-03-06T05:35:55.661Z,0.80
2023-03-06T05:38:40.959Z,0.85
2023-03-06T05:41:26.595Z,0.70
2023-03-06T05:44:12.035Z,2.47
2023-03-06T05:46:57.541Z,1.25
2023-03-06T05:49:43.083Z,1.23
2023-03-06T05:52:28.692Z,0.65
2023-03-06T05:55:13.992Z,0.70
2023-03-06T05:57:59.678Z,1.35
2023-03-06T06:00:45.144Z,0.73
2023-03-06T06:03:30.678Z,1.02
2023-03-06T06:06:16.359Z,0.88
2023-03-06T06:09:01.760Z,3.30
2023-03-06T06:11:47.144Z,0.93
2023-03-06T06:14:35.829Z,0.73
2023-03-06T06:17:21.305Z,2.63
2023-03-06T06:20:08.570Z,1.52
2023-03-06T06:22:54.319Z,2.13
2023-03-06T06:25:40.148Z,0.98
2023-03-06T06:28:25.944Z,1.80
2023-03-06T06:31:13.438Z,1.52
2023-03-06T06:33:59.194Z,1.67
2023-03-06T06:36:44.960Z,1.95
2023-03-06T06:39:30.181Z,1.13
2023-03-06T06:42:39.010Z,1.88
2023-03-06T06:45:22.698Z,1.67
2023-03-06T06:48:08.824Z,0.80
2023-03-06T06:50:59.385Z,1.67
2023-03-06T06:53:45.012Z,1.58
2023-03-06T06:56:30.498Z,1.38
2023-03-06T06:59:17.521Z,1.75
2023-03-06T07:02:04.150Z,1.70
2023-03-06T07:05:03.077Z,2.13
2023-03-06T07:07:50.909Z,1.92
2023-03-06T07:10:38.017Z,1.90
2023-03-06T07:13:23.904Z,1.20
2023-03-06T07:16:09.638Z,1.63
2023-03-06T07:18:55.415Z,0.88
2023-03-06T07:21:41.396Z,1.33
2023-03-06T07:24:27.617Z,0.82
2023-03-06T07:27:13.138Z,1.20
2023-03-06T07:29:58.804Z,1.35
2023-03-06T07:32:44.572Z,1.48
2023-03-06T07:35:30.055Z,0.85
2023-03-06T07:38:15.435Z,1.23
2023-03-06T07:41:01.024Z,1.13
2023-03-06T07:43:47.233Z,0.93
2023-03-06T07:46:32.941Z,1.20
2023-03-06T07:49:18.621Z,0.73
2023-03-06T07:52:04.482Z,1.63
2023-03-06T07:54:50.267Z,1.60
2023-03-06T07:57:37.329Z,1.30
2023-03-06T08:00:23.481Z,1.13
2023-03-06T08:03:14.460Z,1.42
2023-03-06T08:06:10.473Z,1.50
2023-03-06T08:08:57.995Z,1.08
2023-03-06T08:11:43.568Z,1.02
2023-03-06T08:14:29.110Z,1.02
2023-03-06T08:17:14.764Z,1.20
2023-03-06T08:20:00.235Z,0.40
2023-03-06T08:22:46.304Z,0.80
2023-03-06T08:25:31.835Z,1.10
2023-03-06T08:28:17.422Z,1.35
2023-03-06T08:31:34.183Z,1.45
2023-03-06T08:34:23.546Z,1.85
2023-03-06T08:37:08.847Z,1.67
2023-03-06T08:39:54.558Z,1.92
2023-03-06T08:42:40.342Z,1.33
2023-03-06T08:45:26.455Z,1.05
2023-03-06T08:48:12.081Z,0.88
2023-03-06T08:50:57.933Z,0.90
2023-03-06T08:53:44.378Z,1.48
2023-03-06T08:56:34.688Z,1.17
2023-03-06T08:59:20.332Z,0.77
2023-03-06T09:02:05.892Z,1.10
2023-03-06T09:04:51.236Z,0.90
2023-03-06T09:07:36.911Z,1.13
2023-03-06T09:10:25.051Z,1.70
2023-03-06T09:13:10.514Z,0.82
2023-03-06T09:15:56.025Z,1.02
2023-03-06T09:18:42.156Z,1.10
2023-03-06T09:21:27.651Z,0.57
2023-03-06T09:24:13.122Z,1.05
2023-03-06T09:26:58.780Z,1.35
2023-03-06T09:29:44.300Z,0.90
2023-03-06T09:32:30.100Z,0.82
2023-03-06T09:35:15.801Z,0.60
2023-03-06T09:38:01.204Z,1.27
2023-03-06T09:41:30.510Z,1.30
2023-03-06T09:44:24.160Z,1.20
2023-03-06T09:48:07.106Z,1.30
2023-03-06T09:51:06.271Z,1.10
2023-03-06T09:54:14.820Z,1.75
2023-03-06T09:57:00.794Z,1.50
2023-03-06T09:59:53.633Z,1.10
2023-03-06T10:02:50.672Z,1.40
2023-03-06T10:05:43.188Z,1.10
2023-03-06T10:09:05.894Z,0.90
2023-03-06T10:12:38.073Z,1.40
2023-03-06T10:15:36.482Z,1.02
2023-03-06T10:18:21.963Z,0.88
2023-03-06T10:21:48.394Z,0.75
2023-03-06T10:24:54.888Z,0.35
2023-03-06T10:28:19.507Z,1.20
2023-03-06T10:31:19.137Z,0.77
2023-03-06T10:34:29.887Z,0.70
2023-03-06T10:37:22.945Z,0.25
2023-03-06T10:40:22.869Z,0.77
2023-03-06T10:43:12.475Z,0.95
2023-03-06T10:45:58.089Z,1.15
2023-03-06T10:49:02.982Z,0.70
2023-03-06T10:52:14.448Z,0.93
2023-03-06T10:55:28.961Z,1.60
2023-03-06T10:58:25.146Z,1.00
2023-03-06T11:01:22.320Z,0.65
2023-03-06T11:04:33.429Z,0.73
2023-03-06T11:07:27.292Z,0.30
2023-03-06T11:10:20.421Z,0.52
2023-03-06T11:13:23.479Z,0.47
2023-03-06T11:16:29.010Z,0.57
2023-03-06T11:19:29.478Z,0.68
2023-03-06T11:22:19.176Z,0.57
2023-03-06T11:25:06.044Z,0.50
2023-03-06T11:28:21.636Z,0.73
2023-03-06T11:31:42.974Z,1.65
2023-03-06T11:38:01.529Z,0.82
2023-03-06T11:40:56.470Z,0.60
2023-03-06T11:44:29.351Z,1.02
2023-03-06T11:47:58.608Z,0.50
2023-03-06T11:50:53.028Z,0.63
2023-03-06T11:53:40.801Z,0.80
2023-03-06T11:56:46.439Z,0.80
2023-03-06T12:00:22.482Z,0.22
2023-03-06T12:04:00.215Z,0.32
2023-03-06T12:07:45.945Z,0.40
2023-03-06T12:10:54.654Z,0.43
2023-03-06T12:14:03.952Z,0.30
2023-03-06T12:17:31.165Z,0.40
2023-03-06T12:21:09.039Z,0.30
2023-03-06T12:25:10.619Z,0.30
2023-03-06T12:28:41.666Z,0.70
2023-03-06T12:31:54.537Z,0.30
2023-03-06T12:35:34.696Z,0.52
2023-03-06T12:39:11.038Z,0.60
2023-03-06T12:41:56.550Z,0.50
2023-03-06T12:45:29.724Z,0.30
2023-03-06T12:48:30.872Z,0.68
2023-03-06T12:54:04.193Z,0.88
2023-03-06T12:56:51.118Z,0.55
2023-03-06T12:59:48.932Z,0.63
2023-03-06T13:03:05.104Z,0.40
2023-03-06T13:06:50.231Z,0.40
2023-03-06T13:10:13.306Z,0.65
2023-03-06T13:13:27.523Z,0.60
2023-03-06T13:16:23.319Z,0.50
2023-03-06T13:19:26.177Z,0.50
2023-03-06T13:22:30.273Z,0.28
2023-03-06T13:25:19.138Z,0.63
2023-03-06T13:28:05.347Z,0.50
2023-03-06T13:30:53.131Z,0.30
2023-03-06T13:33:38.649Z,0.45
2023-03-06T13:36:39.588Z,0.45
2023-03-06T13:39:25.379Z,0.20
2023-03-06T13:43:01.940Z,0.20
2023-03-06T13:45:48.967Z,0.45
2023-03-06T13:48:44.379Z,0.38
2023-03-06T13:52:00.808Z,0.35
2023-03-06T13:55:13.353Z,0.40
2023-03-06T13:58:31.478Z,0.30
2023-03-06T14:01:33.430Z,0.30
2023-03-06T14:04:58.219Z,0.20
2023-03-06T14:07:48.272Z,0.52
2023-03-06T14:10:36.206Z,0.38
2023-03-06T14:13:41.821Z,0.40
2023-03-06T14:16:49.277Z,0.60
2023-03-06T14:19:38.002Z,0.40
2023-03-06T14:22:25.414Z,0.50
2023-03-06T14:25:37.400Z,0.40
2023-03-06T14:28:30.526Z,0.40
2023-03-06T14:31:21.513Z,0.30
2023-03-06T14:34:41.182Z,0.30
2023-03-06T14:37:26.877Z,0.17
2023-03-06T14:40:21.177Z,0.25
2023-03-06T14:43:27.285Z,0.20
2023-03-06T14:46:22.367Z,0.67
2023-03-06T14:49:08.731Z,0.80
2023-03-06T14:52:00.572Z,0.15
2023-03-06T14:54:48.004Z,0.30
2023-03-06T14:57:34.346Z,0.20
2023-03-06T15:00:23.303Z,0.40
2023-03-06T15:03:18.377Z,0.30
2023-03-06T15:06:05.795Z,0.20
2023-03-06T15:09:20.104Z,0.10
2023-03-06T15:12:28.760Z,0.30
2023-03-06T15:15:14.115Z,0.40
2023-03-06T15:17:59.900Z,0.25
2023-03-06T15:20:53.465Z,0.63
2023-03-06T15:23:47.085Z,0.60
2023-03-06T15:26:38.948Z,0.60
2023-03-06T15:29:24.537Z,1.25
2023-03-06T15:32:36.623Z,1.52
2023-03-06T15:35:32.682Z,1.13
2023-03-06T15:38:42.067Z,1.05
2023-03-06T15:41:38.305Z,1.38
2023-03-06T15:44:23.931Z,0.90
2023-03-06T15:47:12.024Z,1.40
2023-03-06T15:49:57.547Z,1.55
2023-03-06T15:52:45.726Z,2.25
2023-03-06T15:55:32.761Z,0.98
2023-03-06T15:58:19.976Z,0.90
2023-03-06T16:01:06.099Z,2.42
2023-03-06T16:03:51.745Z,1.02
2023-03-06T16:06:37.276Z,0.98
2023-03-06T16:09:22.717Z,0.75
2023-03-06T16:12:17.041Z,1.42
2023-03-06T16:15:03.080Z,1.23
2023-03-06T16:17:48.834Z,0.90
2023-03-06T16:20:34.548Z,0.63
2023-03-06T16:23:20.196Z,0.70
2023-03-06T16:26:45.668Z,0.90
2023-03-06T16:29:31.666Z,0.68
2023-03-06T16:32:17.294Z,1.30
2023-03-06T16:35:03.001Z,0.77
2023-03-06T16:37:48.989Z,0.88
2023-03-06T16:40:39.009Z,0.65
2023-03-06T16:43:24.713Z,1.33
2023-03-06T16:46:21.084Z,0.80
2023-03-06T16:49:07.018Z,1.00
2023-03-06T16:51:54.002Z,1.38
2023-03-06T16:54:39.781Z,1.35
2023-03-06T16:57:25.393Z,1.40
2023-03-06T17:00:12.998Z,2.17
2023-03-06T17:02:59.595Z,1.20
2023-03-06T17:05:45.362Z,0.95
2023-03-06T17:08:31.295Z,1.15
2023-03-06T17:11:18.232Z,1.25
2023-03-06T17:14:04.754Z,0.65
2023-03-06T17:16:50.577Z,1.35
2023-03-06T17:19:36.119Z,0.75
2023-03-06T17:22:21.689Z,0.90
2023-03-06T17:25:09.569Z,0.90
2023-03-06T17:27:55.363Z,0.93
2023-03-06T17:30:40.948Z,1.30
2023-03-06T17:33:26.674Z,1.13
2023-03-06T17:36:14.759Z,2.13
2023-03-06T17:39:02.336Z,0.98
2023-03-06T17:41:48.400Z,0.82
2023-03-06T17:44:35.652Z,1.08
2023-03-06T17:47:20.989Z,1.35
2023-03-06T17:50:09.535Z,4.15
2023-03-06T17:52:55.198Z,2.25
2023-03-06T17:55:41.183Z,2.08
2023-03-06T17:58:27.494Z,2.50
2023-03-06T18:01:23.665Z,3.33
2023-03-06T18:04:11.407Z,2.97
2023-03-06T18:06:56.928Z,1.90
2023-03-06T18:09:42.701Z,3.70
2023-03-06T18:12:28.206Z,1.50
2023-03-06T18:15:13.591Z,3.60
2023-03-06T18:17:59.592Z,3.17
2023-03-06T18:20:47.129Z,2.53
2023-03-06T18:23:32.771Z,1.83
2023-03-06T18:26:28.264Z,1.52
2023-03-06T18:29:14.034Z,1.95
2023-03-06T18:31:59.519Z,1.08
2023-03-06T18:34:45.303Z,2.70
2023-03-06T18:37:30.820Z,2.55
2023-03-06T18:40:16.447Z,1.55
2023-03-06T18:43:02.139Z,1.90
2023-03-06T18:45:57.532Z,1.90
2023-03-06T18:48:43.436Z,3.13
2023-03-06T18:51:32.501Z,3.28
2023-03-06T18:54:18.278Z,2.33
2023-03-06T18:57:04.869Z,2.13
2023-03-06T18:59:50.562Z,1.75
2023-03-06T19:02:36.437Z,2.45
2023-03-06T19:05:22.168Z,2.15
2023-03-06T19:08:08.494Z,1.88
2023-03-06T19:10:54.268Z,3.15
2023-03-06T19:13:42.681Z,2.22
2023-03-06T19:16:31.700Z,1.95
2023-03-06T19:19:17.329Z,1.80
2023-03-06T19:22:02.702Z,2.20
2023-03-06T19:24:49.298Z,1.77
2023-03-06T19:27:35.407Z,1.45
2023-03-06T19:30:21.319Z,2.78
2023-03-06T19:33:07.125Z,2.10
2023-03-06T19:35:52.422Z,2.40
2023-03-06T19:38:38.088Z,1.45
2023-03-06T19:41:25.074Z,1.98
2023-03-06T19:44:11.137Z,1.40
2023-03-06T19:46:56.622Z,1.30
2023-03-06T19:49:42.429Z,2.20
2023-03-06T19:52:28.406Z,1.98
2023-03-06T19:55:13.911Z,1.42
2023-03-06T19:58:00.034Z,1.98
2023-03-06T20:00:45.544Z,1.60
2023-03-06T20:03:30.965Z,2.05
2023-03-06T20:06:19.841Z,1.90
2023-03-06T20:09:11.689Z,2.15
2023-03-06T20:11:58.257Z,2.22
2023-03-06T20:14:46.543Z,1.37
2023-03-06T20:17:35.829Z,2.10
2023-03-06T20:20:21.515Z,1.50
2023-03-06T20:23:07.031Z,2.10
2023-03-06T20:25:52.774Z,1.83
2023-03-06T20:28:40.674Z,2.70
2023-03-06T20:31:29.895Z,3.53
2023-03-06T20:34:15.568Z,1.50
2023-03-06T20:37:01.175Z,1.42
2023-03-06T20:39:46.432Z,1.60
2023-03-06T20:42:31.927Z,2.33
2023-03-06T20:45:17.593Z,1.65
2023-03-06T20:48:03.547Z,1.70
2023-03-06T20:51:03.876Z,1.80
2023-03-06T20:53:52.447Z,1.23
2023-03-06T20:56:39.715Z,1.65
2023-03-06T20:59:25.591Z,2.45
2023-03-06T21:02:11.622Z,2.60
2023-03-06T21:04:57.229Z,2.17
2023-03-06T21:07:42.577Z,2.53
2023-03-06T21:10:28.008Z,4.10
2023-03-06T21:13:14.474Z,2.30
2023-03-06T21:16:03.441Z,4.07
2023-03-06T21:18:49.050Z,2.42
2023-03-06T21:21:35.286Z,3.08
2023-03-06T21:24:21.404Z,2.92
2023-03-06T21:27:06.885Z,2.80
2023-03-06T21:29:52.249Z,3.33
2023-03-06T21:32:37.746Z,3.28
2023-03-06T21:35:23.297Z,1.90
2023-03-06T21:38:09.370Z,3.13
2023-03-06T21:40:54.821Z,3.30
2023-03-06T21:43:41.722Z,2.22
2023-03-06T21:46:27.973Z,2.85
2023-03-06T21:49:13.506Z,4.60
2023-03-06T21:51:59.091Z,3.70
2023-03-06T21:54:44.576Z,4.15
2023-03-06T21:57:30.077Z,2.50
2023-03-06T22:00:16.403Z,2.05
2023-03-06T22:03:04.033Z,1.67
2023-03-06T22:05:49.839Z,2.75
2023-03-06T22:08:35.537Z,2.22
2023-03-06T22:11:23.739Z,2.20
2023-03-06T22:14:09.609Z,1.80
2023-03-06T22:16:55.159Z,5.97
2023-03-06T22:19:40.672Z,2.55
2023-03-06T22:22:26.140Z,2.45
2023-03-06T22:25:11.582Z,2.00
2023-03-06T22:27:57.077Z,3.20
2023-03-06T22:30:42.377Z,3.83
2023-03-06T22:33:27.981Z,4.20
2023-03-06T22:36:15.921Z,3.45
2023-03-06T22:39:03.868Z,4.68
2023-03-06T22:41:49.350Z,2.17
2023-03-06T22:44:34.787Z,1.70
2023-03-06T22:47:20.200Z,2.17
2023-03-06T22:50:06.623Z,1.50
2023-03-06T22:52:52.149Z,3.92
2023-03-06T22:55:37.679Z,2.22
2023-03-06T22:58:23.320Z,1.77
2023-03-06T23:01:22.882Z,5.45
2023-03-06T23:04:10.236Z,2.90
2023-03-06T23:06:55.806Z,1.65
2023-03-06T23:09:41.250Z,1.77
2023-03-06T23:12:26.739Z,1.45
2023-03-06T23:15:12.102Z,1.23
2023-03-06T23:17:57.680Z,1.67
2023-03-06T23:20:44.569Z,3.55
2023-03-06T23:23:30.204Z,4.53
2023-03-06T23:26:17.596Z,1.73
2023-03-06T23:29:03.577Z,2.30
2023-03-06T23:31:49.235Z,2.05
2023-03-06T23:34:34.796Z,5.28
2023-03-06T23:37:20.070Z,4.70
2023-03-06T23:40:06.454Z,2.80
2023-03-06T23:42:51.800Z,2.05
2023-03-06T23:45:37.838Z,2.17
2023-03-06T23:48:24.269Z,3.55
2023-03-06T23:51:19.189Z,7.13
2023-03-06T23:54:04.696Z,6.32
2023-03-06T23:56:50.124Z,2.55
2023-03-06T23:59:35.592Z,3.13
